Time;durP1;ratioP1;P1;durP2;ratioP2;P2;SDS_P1;SDS_P2;PMS_P1;PMS_P2;Temp;Humidity;BMP_temperature;BMP_pressure;BME280_temperature;BME280_humidity;BME280_pressure;Samples;Min_cycle;Max_cycle;Signal;HPM_P1;HPM_P2
2022/08/17 00:00:59;;;;;;;27.60;19.60;;;;;;;18.45;91.92;98329.05;2212730;81;20965;-80
2022/08/17 00:03:59;;;;;;;27.30;19.00;;;;;;;18.39;91.73;98320.84;2212908;81;20936;-81
2022/08/17 00:07:00;;;;;;;64.85;21.10;;;;;;;18.33;91.73;98323.65;2213275;81;20928;-81
2022/08/17 00:10:00;;;;;;;23.22;17.50;;;;;;;18.27;92.10;98321.63;2213976;81;20949;-81
2022/08/17 00:13:00;;;;;;;33.63;19.02;;;;;;;18.21;92.03;98317.37;2213553;81;21047;-81
2022/08/17 00:16:01;;;;;;;37.75;19.80;;;;;;;18.20;92.44;98318.25;2213312;81;20983;-81
2022/08/17 00:19:01;;;;;;;33.58;18.07;;;;;;;18.17;92.53;98313.05;2213891;81;20960;-81
2022/08/17 00:22:05;;;;;;;28.00;17.57;;;;;;;18.14;92.51;98317.09;2213866;81;20999;-81
2022/08/17 00:25:02;;;;;;;26.68;17.40;;;;;;;18.11;92.55;98318.05;2213524;81;20972;-81
2022/08/17 00:28:03;;;;;;;27.98;18.25;;;;;;;18.13;92.79;98317.55;2213112;81;20932;-82
2022/08/17 00:31:03;;;;;;;25.92;18.62;;;;;;;18.11;92.82;98310.58;2212499;81;20976;-82
2022/08/17 00:34:03;;;;;;;108.97;74.35;;;;;;;18.08;92.70;98310.20;2213494;81;20921;-81
2022/08/17 00:37:04;;;;;;;41.30;31.33;;;;;;;18.09;92.92;98319.00;2213517;81;20937;-81
2022/08/17 00:40:04;;;;;;;24.45;19.90;;;;;;;18.03;92.73;98312.10;2213498;81;20973;-81
2022/08/17 00:43:04;;;;;;;22.48;18.98;;;;;;;17.98;92.82;98309.17;2213606;81;21030;-81
2022/08/17 00:46:05;;;;;;;23.42;17.67;;;;;;;17.95;92.83;98311.89;2213278;81;20933;-81
2022/08/17 00:49:05;;;;;;;206.95;33.13;;;;;;;17.96;93.37;98307.89;2212819;81;20975;-82
2022/08/17 00:52:07;;;;;;;26.05;18.50;;;;;;;18.00;93.81;98315.28;2212974;81;20944;-81
2022/08/17 00:55:06;;;;;;;25.82;17.62;;;;;;;17.94;93.18;98309.70;2213231;81;20969;-81
2022/08/17 00:58:07;;;;;;;23.15;16.75;;;;;;;17.89;93.12;98310.28;2212953;81;20928;-81
2022/08/17 01:01:07;;;;;;;28.10;17.92;;;;;;;17.89;93.13;98313.38;2213191;81;20965;-80
2022/08/17 01:04:07;;;;;;;28.87;20.25;;;;;;;17.81;92.87;98315.75;2212584;81;20940;-81
2022/08/17 01:07:10;;;;;;;23.65;18.67;;;;;;;17.86;94.44;98321.38;2212645;81;20937;-81
2022/08/17 01:10:10;;;;;;;24.60;18.32;;;;;;;17.89;93.86;98312.92;2212834;81;20916;-81
2022/08/17 01:13:09;;;;;;;31.90;18.23;;;;;;;17.82;93.16;98312.66;2212469;81;20988;-81
2022/08/17 01:16:09;;;;;;;243.12;30.85;;;;;;;17.71;92.88;98310.30;2211489;81;20954;-81
2022/08/17 01:19:09;;;;;;;29.77;18.12;;;;;;;17.69;93.64;98313.88;2211984;81;21352;-81
2022/08/17 01:22:10;;;;;;;28.15;18.70;;;;;;;17.73;93.83;98310.26;2212144;81;20909;-81
2022/08/17 01:25:11;;;;;;;29.32;19.90;;;;;;;17.74;93.68;98315.50;2212092;81;20960;-78
2022/08/17 01:28:11;;;;;;;37.03;22.25;;;;;;;17.72;93.99;98321.27;2211878;81;20936;-81
2022/08/17 01:31:11;;;;;;;25.70;17.23;;;;;;;17.75;95.11;98337.03;2211821;81;20934;-81
2022/08/17 01:34:11;;;;;;;30.05;18.10;;;;;;;17.73;93.50;98341.48;2212165;81;20986;-80
2022/08/17 01:37:12;;;;;;;24.75;17.85;;;;;;;17.66;92.93;98331.98;2212204;81;20951;-81
2022/08/17 01:40:12;;;;;;;37.98;18.17;;;;;;;17.58;93.11;98331.27;2211946;81;21016;-80
2022/08/17 01:43:13;;;;;;;23.05;18.60;;;;;;;17.58;93.46;98332.59;2212014;81;20940;-81
2022/08/17 01:46:13;;;;;;;26.97;19.35;;;;;;;17.54;93.20;98328.29;2211639;81;20997;-81
2022/08/17 01:49:13;;;;;;;39.67;19.75;;;;;;;17.49;93.76;98332.81;2211975;81;21288;-79
2022/08/17 01:52:14;;;;;;;29.10;19.45;;;;;;;17.49;94.09;98336.77;2211984;81;20936;-81
2022/08/17 01:55:14;;;;;;;26.00;17.82;;;;;;;17.54;94.44;98332.25;2211726;81;20968;-80
2022/08/17 01:58:15;;;;;;;28.30;17.73;;;;;;;17.45;93.29;98332.47;2212294;81;20928;-80
2022/08/17 02:01:15;;;;;;;28.12;21.45;;;;;;;17.38;93.49;98326.47;2212037;81;21360;-80
2022/08/17 02:04:15;;;;;;;43.48;36.05;;;;;;;17.38;93.70;98334.38;2212607;81;20944;-81
2022/08/17 02:07:16;;;;;;;24.55;21.40;;;;;;;17.36;93.96;98335.33;2212416;81;20940;-81
2022/08/17 02:10:16;;;;;;;113.12;25.08;;;;;;;17.33;94.07;98337.55;2212306;81;21311;-80
2022/08/17 02:13:17;;;;;;;61.80;20.60;;;;;;;17.27;93.82;98331.55;2212706;81;21003;-81
2022/08/17 02:16:17;;;;;;;34.65;20.32;;;;;;;17.25;94.28;98334.22;2213332;81;20901;-80
2022/08/17 02:19:17;;;;;;;43.52;20.12;;;;;;;17.29;94.69;98336.34;2213265;81;20977;-81
2022/08/17 02:22:18;;;;;;;27.02;18.30;;;;;;;17.30;94.54;98333.66;2213548;81;21000;-81
2022/08/17 02:25:18;;;;;;;22.77;18.48;;;;;;;17.26;94.37;98337.72;2213025;81;20912;-80
2022/08/17 02:28:19;;;;;;;30.72;19.42;;;;;;;17.19;94.22;98328.64;2213012;81;20901;-80
2022/08/17 02:31:20;;;;;;;43.28;21.37;;;;;;;17.20;94.61;98329.05;2211680;81;21343;-81
2022/08/17 02:34:19;;;;;;;96.25;24.82;;;;;;;17.29;95.90;98336.34;2211612;81;20964;-81
2022/08/17 02:37:20;;;;;;;31.42;20.08;;;;;;;17.32;95.39;98330.98;2212869;81;20949;-77
2022/08/17 02:40:20;;;;;;;52.93;21.00;;;;;;;17.27;94.54;98331.09;2212885;80;20944;-81
2022/08/17 02:43:21;;;;;;;36.35;20.82;;;;;;;17.25;94.53;98332.91;2212769;80;20976;-81
2022/08/17 02:46:21;;;;;;;54.10;24.70;;;;;;;17.20;94.21;98326.41;2212081;81;21363;-82
2022/08/17 02:49:21;;;;;;;41.50;20.30;;;;;;;17.15;94.28;98330.06;2211638;81;20971;-81
2022/08/17 02:52:22;;;;;;;46.88;26.02;;;;;;;17.12;94.46;98333.63;2211025;81;20964;-81
2022/08/17 02:55:22;;;;;;;37.25;22.87;;;;;;;17.11;94.69;98333.67;2210444;81;21356;-82
2022/08/17 02:58:23;;;;;;;35.90;21.15;;;;;;;17.09;94.65;98329.74;2211249;81;20944;-82
2022/08/17 03:01:23;;;;;;;26.95;17.50;;;;;;;17.12;94.74;98334.08;2211670;81;20945;-82
2022/08/17 03:04:23;;;;;;;31.93;23.77;;;;;;;17.04;94.21;98335.57;2213907;81;20933;-82
2022/08/17 03:07:24;;;;;;;58.70;40.90;;;;;;;17.01;94.54;98336.09;2213936;81;20980;-80
2022/08/17 03:10:24;;;;;;;81.65;26.33;;;;;;;17.00;94.70;98331.72;2213287;81;20949;-82
2022/08/17 03:13:26;;;;;;;26.23;19.42;;;;;;;17.01;95.10;98333.00;2213495;81;21038;-83
2022/08/17 03:16:25;;;;;;;25.55;19.85;;;;;;;16.97;94.56;98336.61;2213356;81;20967;-82
2022/08/17 03:19:25;;;;;;;23.70;19.12;;;;;;;16.96;94.70;98334.88;2213624;81;21288;-83
2022/08/17 03:22:26;;;;;;;45.05;21.50;;;;;;;16.97;94.86;98339.25;2213841;81;21007;-83
2022/08/17 03:25:26;;;;;;;541.77;55.33;;;;;;;16.91;94.55;98334.55;2213351;81;20988;-81
2022/08/17 03:28:27;;;;;;;33.98;19.52;;;;;;;16.87;94.45;98339.89;2214004;81;20967;-82
2022/08/17 03:31:27;;;;;;;38.15;20.95;;;;;;;16.88;94.66;98338.13;2214340;81;20955;-82
2022/08/17 03:34:27;;;;;;;29.05;18.42;;;;;;;16.89;94.96;98339.86;2214330;81;21351;-82
2022/08/17 03:37:28;;;;;;;24.37;19.05;;;;;;;16.94;95.26;98335.81;2213960;81;20952;-81
2022/08/17 03:40:28;;;;;;;23.62;18.12;;;;;;;16.91;94.53;98337.19;2213915;81;20995;-81
2022/08/17 03:43:29;;;;;;;22.40;18.57;;;;;;;16.83;94.50;98339.54;2213633;81;21000;-81
2022/08/17 03:56:44;;;;;;;32.67;22.50;;;;;;;16.77;95.18;98342.76;2213081;81;21017;-81
2022/08/17 03:59:44;;;;;;;27.42;20.08;;;;;;;16.84;95.39;98346.55;2213919;81;20913;-81
2022/08/17 04:02:45;;;;;;;21.82;18.02;;;;;;;16.88;95.08;98355.27;2213407;81;20984;-81
2022/08/17 04:05:45;;;;;;;22.13;17.50;;;;;;;16.97;95.02;98359.02;2212780;81;20983;-81
2022/08/17 04:08:45;;;;;;;29.27;18.75;;;;;;;17.00;94.66;98362.91;2211627;81;20964;-80
2022/08/17 04:11:46;;;;;;;22.60;19.48;;;;;;;17.06;94.66;98368.50;2210323;81;20971;-80
2022/08/17 04:14:46;;;;;;;28.73;18.67;;;;;;;17.12;94.72;98371.88;2210127;80;21016;-80
2022/08/17 04:17:46;;;;;;;667.35;76.15;;;;;;;17.19;94.53;98368.19;2209533;80;20987;-80
2022/08/17 04:20:47;;;;;;;25.02;17.85;;;;;;;17.19;93.77;98371.28;2209523;81;20990;-81
2022/08/17 04:23:47;;;;;;;55.65;21.23;;;;;;;17.15;93.54;98375.76;2208973;81;21130;-80
2022/08/17 04:26:48;;;;;;;71.15;50.30;;;;;;;17.16;94.43;98375.30;2208954;81;20948;-80
2022/08/17 04:29:48;;;;;;;25.82;21.60;;;;;;;17.22;94.03;98379.58;2208819;81;20983;-80
2022/08/17 04:32:48;;;;;;;25.95;20.95;;;;;;;17.29;93.91;98386.00;2208523;81;20960;-80
2022/08/17 04:35:49;;;;;;;29.23;18.98;;;;;;;17.41;94.39;98383.12;2208919;81;20920;-80
2022/08/17 04:38:49;;;;;;;29.07;18.20;;;;;;;17.57;94.25;98384.08;2208989;81;21011;-79
2022/08/17 04:42:15;;;;;;;24.12;17.92;;;;;;;17.70;94.14;98381.60;2208587;80;21051;-79
2022/08/17 04:45:08;;;;;;;20.82;16.17;;;;;;;17.88;94.25;98381.16;2209866;81;20960;-78
2022/08/17 04:48:09;;;;;;;28.05;18.85;;;;;;;18.05;93.46;98386.88;2209453;81;21363;-78
2022/08/17 04:51:09;;;;;;;30.30;20.02;;;;;;;18.09;93.57;98384.57;2208777;81;21023;-80
2022/08/17 04:54:09;;;;;;;87.05;21.17;;;;;;;18.20;94.00;98379.47;2209170;81;20984;-80
2022/08/17 04:57:10;;;;;;;34.00;20.23;;;;;;;18.39;93.81;98383.39;2208545;81;21046;-80
2022/08/17 05:00:10;;;;;;;28.98;24.65;;;;;;;18.65;94.29;98378.73;2209999;81;21112;-79
2022/08/17 05:03:11;;;;;;;31.33;26.55;;;;;;;18.93;94.81;98386.30;2208004;81;21030;-78
2022/08/17 05:06:11;;;;;;;34.20;26.93;;;;;;;19.20;94.87;98389.94;2208852;81;21054;-81
2022/08/17 05:09:11;;;;;;;26.87;22.15;;;;;;;19.37;94.39;98388.11;2209523;81;20960;-79
2022/08/17 05:12:12;;;;;;;47.98;25.68;;;;;;;19.57;94.05;98389.71;2210062;81;21039;-79
2022/08/17 05:15:14;;;;;;;49.85;24.57;;;;;;;19.77;93.34;98398.34;2209473;81;21376;-83
2022/08/17 05:18:13;;;;;;;40.78;25.30;;;;;;;19.98;94.28;98395.48;2209577;81;21422;-80
2022/08/17 05:21:13;;;;;;;34.20;24.55;;;;;;;20.45;92.14;98397.01;2209893;81;20948;-83
2022/08/17 05:24:13;;;;;;;42.55;26.95;;;;;;;20.59;91.19;98398.71;2208995;81;20960;-83
2022/08/17 05:27:14;;;;;;;39.27;27.37;;;;;;;20.72;89.99;98394.70;2208137;81;20988;-82
2022/08/17 05:30:14;;;;;;;65.90;30.82;;;;;;;20.85;89.81;98397.34;2207826;80;21058;-83
2022/08/17 05:33:15;;;;;;;36.08;27.25;;;;;;;20.97;89.53;98406.18;2207917;81;20971;-79
2022/08/17 05:36:15;;;;;;;35.65;26.07;;;;;;;21.10;88.91;98405.27;2207797;81;21702;-81
2022/08/17 05:39:15;;;;;;;42.93;27.52;;;;;;;21.25;89.08;98406.50;2207777;81;21308;-81
2022/08/17 05:42:16;;;;;;;42.10;26.55;;;;;;;21.42;88.37;98412.03;2214944;80;21046;-81
2022/08/17 05:45:16;;;;;;;47.78;28.73;;;;;;;21.57;88.17;98410.11;2218418;80;20991;-83
2022/08/17 05:48:17;;;;;;;33.50;27.35;;;;;;;21.74;87.50;98411.26;2219284;80;21019;-82
2022/08/17 05:51:17;;;;;;;34.23;27.82;;;;;;;21.89;87.02;98406.19;2218390;80;21859;-82
2022/08/17 05:54:18;;;;;;;40.35;26.12;;;;;;;22.10;86.52;98410.25;2218502;80;20991;-83
2022/08/17 05:57:18;;;;;;;35.40;23.98;;;;;;;22.26;85.97;98404.70;2218281;80;21094;-79
2022/08/17 06:00:19;;;;;;;27.40;20.68;;;;;;;22.38;85.32;98406.84;2218772;80;21458;-81
2022/08/17 06:03:19;;;;;;;28.02;19.73;;;;;;;22.55;84.41;98408.34;2218816;80;20995;-82
2022/08/17 06:06:19;;;;;;;22.35;19.92;;;;;;;22.74;83.72;98408.39;2219028;80;21074;-81
2022/08/17 06:09:20;;;;;;;22.50;19.67;;;;;;;22.88;82.70;98402.50;2218672;80;21572;-82
2022/08/17 06:12:20;;;;;;;22.42;18.40;;;;;;;23.03;82.35;98404.93;2218847;80;21035;-82
2022/08/17 06:15:23;;;;;;;21.90;18.67;;;;;;;23.18;81.55;98408.22;2218386;80;21051;-81
2022/08/17 06:18:21;;;;;;;28.47;19.42;;;;;;;23.29;80.76;98400.60;2218805;80;21347;-82
2022/08/17 06:21:21;;;;;;;27.98;19.17;;;;;;;23.39;80.88;98398.38;2218781;80;21007;-81
2022/08/17 06:24:22;;;;;;;29.48;19.45;;;;;;;23.53;80.70;98400.42;2218683;80;20999;-81
2022/08/17 06:27:23;;;;;;;24.55;19.60;;;;;;;23.68;80.59;98409.91;2218391;80;21007;-82
2022/08/17 06:30:24;;;;;;;18.15;16.42;;;;;;;23.92;80.96;98401.66;2218922;80;21019;-81
2022/08/17 06:33:23;;;;;;;23.18;16.70;;;;;;;24.11;78.25;98402.47;2218517;80;21000;-83
2022/08/17 06:36:23;;;;;;;18.92;14.50;;;;;;;24.22;77.33;98402.80;2219529;80;20991;-81
2022/08/17 06:39:25;;;;;;;22.32;15.95;;;;;;;24.29;77.28;98400.75;2219205;80;20995;-81
2022/08/17 06:42:25;;;;;;;17.35;15.50;;;;;;;24.56;76.76;98406.01;2212096;80;21011;-81
2022/08/17 06:45:24;;;;;;;14.47;12.80;;;;;;;24.81;76.38;98405.59;2207883;81;21004;-80
2022/08/17 06:48:25;;;;;;;15.72;14.03;;;;;;;24.99;74.99;98406.45;2208343;81;21391;-82
2022/08/17 06:51:25;;;;;;;17.10;13.35;;;;;;;25.14;74.16;98412.31;2208228;81;20988;-81
2022/08/17 06:54:26;;;;;;;16.87;13.15;;;;;;;25.32;73.38;98411.81;2208218;81;21023;-82
2022/08/17 06:57:27;;;;;;;17.25;12.03;;;;;;;25.51;72.62;98404.51;2208273;81;20984;-81
2022/08/17 07:00:27;;;;;;;13.53;11.78;;;;;;;25.59;70.16;98407.61;2208177;81;21044;-81
2022/08/17 07:06:28;;;;;;;15.85;11.45;;;;;;;25.91;69.51;98404.96;2236413;79;23610;-81
2022/08/17 07:09:30;;;;;;;14.25;11.55;;;;;;;26.00;68.92;98409.31;2186826;81;20992;-80
2022/08/17 07:12:30;;;;;;;12.80;11.45;;;;;;;26.09;68.45;98410.63;2186789;81;21046;-82
2022/08/17 07:15:32;;;;;;;12.37;11.18;;;;;;;26.16;66.79;98415.14;2186766;81;20999;-81
2022/08/17 07:18:32;;;;;;;16.65;12.43;;;;;;;26.21;67.73;98405.03;2187203;81;20983;-81
2022/08/17 07:21:31;;;;;;;16.35;12.15;;;;;;;26.37;67.41;98413.05;2187598;81;21702;-81
2022/08/17 07:24:32;;;;;;;20.72;11.90;;;;;;;26.47;66.26;98411.56;2187336;81;21526;-81
2022/08/17 07:27:31;;;;;;;14.65;11.57;;;;;;;26.49;66.42;98408.31;2187034;81;20932;-81
2022/08/17 07:30:32;;;;;;;16.87;11.80;;;;;;;26.60;65.74;98412.07;2187167;81;20963;-81
2022/08/17 07:33:32;;;;;;;17.85;11.70;;;;;;;26.77;66.14;98411.53;2187027;81;21700;-81
2022/08/17 07:36:33;;;;;;;22.48;12.53;;;;;;;26.99;65.60;98414.69;2187271;81;20968;-83
2022/08/17 07:39:33;;;;;;;15.65;12.35;;;;;;;27.00;64.00;98416.41;2186957;81;20932;-81
2022/08/17 07:42:33;;;;;;;15.03;11.93;;;;;;;27.03;64.44;98414.88;2186797;81;20960;-80
2022/08/17 07:48:53;;;;;;;17.65;12.70;;;;;;;27.06;63.29;98413.34;2186932;81;20995;-83
2022/08/17 07:51:54;;;;;;;14.60;12.70;;;;;;;27.06;63.79;98419.19;2187240;81;20982;-82
2022/08/17 07:54:53;;;;;;;13.70;12.07;;;;;;;27.16;64.29;98414.98;2187221;81;20972;-82
2022/08/17 07:57:54;;;;;;;14.65;11.25;;;;;;;27.45;63.84;98421.19;2186864;81;20979;-81
2022/08/17 08:00:54;;;;;;;14.83;11.35;;;;;;;27.65;61.89;98415.92;2187427;81;21028;-83
2022/08/17 08:03:56;;;;;;;15.10;11.18;;;;;;;27.62;61.56;98411.62;2186814;81;21011;-82
2022/08/17 08:06:55;;;;;;;17.57;11.83;;;;;;;27.81;61.03;98401.94;2187061;81;20968;-81
2022/08/17 08:09:57;;;;;;;15.05;11.33;;;;;;;27.95;61.20;98399.69;2187146;81;20932;-80
2022/08/17 08:12:56;;;;;;;13.03;11.83;;;;;;;28.09;60.29;98404.53;2187068;81;20968;-82
2022/08/17 08:15:56;;;;;;;16.62;12.45;;;;;;;28.24;60.58;98398.66;2187463;81;20960;-81
2022/08/17 08:18:57;;;;;;;15.90;11.88;;;;;;;28.26;58.52;98403.44;2187309;81;21011;-81
2022/08/17 08:21:57;;;;;;;17.67;12.98;;;;;;;28.39;59.21;98408.36;2187281;81;21376;-81
2022/08/17 08:24:58;;;;;;;12.00;10.70;;;;;;;28.27;59.18;98408.32;2187377;81;21007;-83
2022/08/17 08:28:00;;;;;;;13.95;11.43;;;;;;;28.38;57.55;98413.34;2187123;81;21023;-82
2022/08/17 08:30:58;;;;;;;12.55;11.15;;;;;;;28.41;57.56;98410.45;2187064;81;20972;-82
2022/08/17 08:33:59;;;;;;;12.18;10.60;;;;;;;28.42;57.09;98412.17;2187307;81;21418;-83
2022/08/17 08:36:59;;;;;;;17.17;10.80;;;;;;;28.59;57.68;98411.03;2187089;81;20980;-82
2022/08/17 08:40:00;;;;;;;14.10;9.70;;;;;;;28.86;56.59;98402.95;2186451;81;21276;-81
2022/08/17 08:43:02;;;;;;;14.45;10.28;;;;;;;29.05;56.84;98391.78;2187319;81;20956;-81
2022/08/17 08:46:00;;;;;;;12.55;9.50;;;;;;;29.18;55.58;98399.36;2186993;81;21018;-82
2022/08/17 08:49:01;;;;;;;11.10;9.18;;;;;;;29.21;54.01;98404.99;2186233;81;20986;-81
2022/08/17 08:52:01;;;;;;;35.17;12.30;;;;;;;29.26;53.12;98407.73;2187765;81;20987;-82
2022/08/17 08:55:02;;;;;;;13.30;10.18;;;;;;;29.35;54.07;98412.45;2186222;81;20980;-81
2022/08/17 08:58:02;;;;;;;13.32;10.32;;;;;;;29.49;53.63;98407.49;2186284;81;20972;-81
2022/08/17 09:01:02;;;;;;;16.50;9.63;;;;;;;29.07;53.03;98401.94;2186094;81;21055;-80
2022/08/17 09:04:03;;;;;;;13.75;9.88;;;;;;;28.79;52.78;98409.20;2186066;81;21034;-81
2022/08/17 09:07:03;;;;;;;13.43;9.20;;;;;;;28.69;53.57;98411.30;2187274;81;20956;-80
2022/08/17 09:10:04;;;;;;;18.65;8.98;;;;;;;28.69;53.67;98411.30;2186267;81;21062;-79
2022/08/17 09:13:05;;;;;;;15.25;8.08;;;;;;;28.90;52.87;98404.47;2186445;81;20968;-81
2022/08/17 09:16:05;;;;;;;11.15;8.28;;;;;;;29.13;49.70;98402.36;2186492;81;20972;-79
2022/08/17 09:19:05;;;;;;;10.75;8.38;;;;;;;29.01;50.27;98401.03;2185598;81;21351;-81
2022/08/17 09:22:10;;;;;;;14.75;8.30;;;;;;;28.88;51.10;98405.05;2186203;81;21035;-80
2022/08/17 09:25:06;;;;;;;12.65;8.40;;;;;;;29.05;49.16;98401.19;2186172;81;20996;-81
2022/08/17 09:28:06;;;;;;;11.78;7.45;;;;;;;29.02;50.05;98402.27;2185865;81;21003;-81
2022/08/17 09:31:07;;;;;;;11.70;7.30;;;;;;;29.10;46.90;98401.24;2186333;81;20980;-79
2022/08/17 09:34:07;;;;;;;8.63;7.35;;;;;;;29.21;47.61;98407.69;2185055;81;21362;-81
2022/08/17 09:37:08;;;;;;;28.45;8.40;;;;;;;29.38;48.01;98410.03;2187416;81;21387;-81
2022/08/17 09:40:08;;;;;;;11.30;7.50;;;;;;;29.72;47.62;98412.55;2186977;81;20995;-79
2022/08/17 09:43:08;;;;;;;20.60;8.28;;;;;;;29.97;47.47;98411.11;2187500;81;21007;-82
2022/08/17 09:46:10;;;;;;;12.88;7.37;;;;;;;30.22;47.33;98417.39;2186055;81;20972;-81
2022/08/17 09:49:09;;;;;;;10.63;7.90;;;;;;;30.24;45.59;98417.65;2186246;81;20968;-81
2022/08/17 09:52:10;;;;;;;10.55;7.65;;;;;;;30.27;45.08;98413.38;2186546;81;20999;-83
2022/08/17 09:55:10;;;;;;;11.93;7.45;;;;;;;30.42;45.15;98419.47;2186182;81;20960;-81
2022/08/17 09:58:10;;;;;;;12.55;7.67;;;;;;;30.43;44.86;98419.36;2186371;81;21035;-83
2022/08/17 10:01:11;;;;;;;12.60;8.38;;;;;;;30.57;44.89;98421.48;2186522;81;21840;-82
2022/08/17 10:04:11;;;;;;;10.45;7.92;;;;;;;30.81;45.22;98418.77;2186422;81;21008;-80
2022/08/17 10:07:12;;;;;;;10.72;7.05;;;;;;;30.91;43.47;98416.59;2185740;81;21043;-80
2022/08/17 10:10:13;;;;;;;15.98;7.85;;;;;;;30.86;43.71;98413.39;2187004;81;21008;-77
2022/08/17 10:13:13;;;;;;;11.03;8.08;;;;;;;30.87;43.48;98420.50;2185305;81;20980;-76
2022/08/17 10:16:13;;;;;;;13.05;8.30;;;;;;;31.03;44.44;98416.13;2184753;81;20992;-80
2022/08/17 10:19:13;;;;;;;8.98;7.65;;;;;;;31.35;44.68;98415.84;2184926;81;20936;-81
2022/08/17 10:28:52;;;;;;;15.68;7.10;;;;;;;31.43;43.67;98418.42;2187170;81;20999;-79
2022/08/17 10:31:52;;;;;;;9.93;7.28;;;;;;;31.61;42.39;98408.84;2187637;81;21003;-80
2022/08/17 10:34:52;;;;;;;13.90;7.50;;;;;;;31.55;41.96;98407.99;2186974;81;21063;-81
2022/08/17 10:37:53;;;;;;;10.98;7.50;;;;;;;31.60;42.25;98409.34;2186592;81;21027;-82
2022/08/17 10:40:53;;;;;;;10.32;7.35;;;;;;;31.68;42.15;98401.48;2187968;81;20987;-81
2022/08/17 10:43:54;;;;;;;8.25;7.45;;;;;;;31.85;42.26;98411.42;2187782;81;21023;-79
2022/08/17 10:46:54;;;;;;;10.70;8.00;;;;;;;31.92;41.74;98412.14;2187825;81;20991;-81
2022/08/17 10:49:56;;;;;;;8.88;7.40;;;;;;;31.85;41.66;98412.77;2187122;81;21007;-82
2022/08/17 10:52:55;;;;;;;11.30;8.45;;;;;;;31.99;42.10;98408.44;2187205;81;20995;-82
2022/08/17 10:55:55;;;;;;;11.90;8.50;;;;;;;31.92;42.08;98408.09;2186988;81;20996;-81
2022/08/17 10:58:56;;;;;;;13.13;8.30;;;;;;;31.78;41.35;98416.45;2187219;81;21379;-81
2022/08/17 11:01:57;;;;;;;16.67;8.48;;;;;;;31.64;41.06;98416.69;2187058;81;20988;-79
2022/08/17 11:04:57;;;;;;;11.15;7.97;;;;;;;31.64;41.32;98417.55;2187792;81;21501;-79
2022/08/17 11:07:57;;;;;;;9.05;8.03;;;;;;;31.39;41.65;98419.64;2188129;81;20920;-79
2022/08/17 11:10:57;;;;;;;12.10;8.33;;;;;;;31.31;41.58;98415.72;2188308;81;21054;-81
2022/08/17 11:13:58;;;;;;;11.22;8.60;;;;;;;31.33;42.24;98420.99;2188997;81;21638;-81
2022/08/17 11:16:58;;;;;;;10.78;8.93;;;;;;;31.38;42.22;98421.48;2188390;81;20964;-82
2022/08/17 11:19:59;;;;;;;9.15;8.18;;;;;;;31.42;41.99;98422.95;2187611;81;20940;-81
2022/08/17 11:22:59;;;;;;;10.50;7.58;;;;;;;31.43;42.04;98419.28;2187692;81;20984;-82
2022/08/17 11:26:06;;;;;;;11.05;7.90;;;;;;;31.44;39.76;98417.44;2187064;81;21438;-80
2022/08/17 11:29:04;;;;;;;8.58;7.70;;;;;;;31.38;40.31;98412.05;2187251;81;21384;-81
2022/08/17 11:32:03;;;;;;;8.58;7.67;;;;;;;31.41;40.79;98405.55;2187464;81;20973;-81
2022/08/17 11:35:04;;;;;;;10.63;8.05;;;;;;;31.45;40.70;98394.39;2187500;81;21024;-81
2022/08/17 11:38:04;;;;;;;13.98;8.53;;;;;;;31.56;40.70;98396.22;2187192;81;20948;-80
2022/08/17 11:41:05;;;;;;;10.18;7.70;;;;;;;31.68;40.64;98393.87;2187407;81;20984;-81
2022/08/17 11:44:05;;;;;;;19.80;8.05;;;;;;;31.79;40.62;98393.03;2186673;81;21023;-82
2022/08/17 11:53:44;;;;;;;10.35;7.25;;;;;;;31.85;38.91;98395.23;2186632;81;21043;-81
2022/08/17 11:56:44;;;;;;;14.43;7.28;;;;;;;32.04;38.77;98395.91;2186773;81;20964;-82
2022/08/17 11:59:46;;;;;;;8.70;7.30;;;;;;;32.14;38.76;98393.70;2186731;81;20921;-81
2022/08/17 12:02:47;;;;;;;13.40;7.58;;;;;;;32.22;37.38;98397.97;2186682;81;21007;-81
2022/08/17 12:05:45;;;;;;;10.30;7.62;;;;;;;32.18;38.20;98389.76;2181085;81;21023;-82
2022/08/17 12:08:46;;;;;;;16.07;7.78;;;;;;;32.28;37.99;98384.48;2170110;81;21000;-80
2022/08/17 12:11:46;;;;;;;10.78;7.35;;;;;;;32.36;37.83;98384.69;2169978;81;21390;-81
2022/08/17 12:14:47;;;;;;;13.75;7.92;;;;;;;32.52;37.60;98391.00;2169267;81;20995;-80
2022/08/17 12:17:47;;;;;;;11.83;7.92;;;;;;;32.57;37.55;98397.72;2169519;81;20976;-80
2022/08/17 12:20:48;;;;;;;16.52;8.15;;;;;;;32.49;38.11;98392.11;2168995;81;21309;-80
2022/08/17 12:23:48;;;;;;;9.58;7.70;;;;;;;32.18;38.40;98383.50;2168422;81;20937;-81
2022/08/17 12:26:48;;;;;;;12.80;7.83;;;;;;;31.99;38.84;98393.59;2168170;81;21001;-80
2022/08/17 12:29:49;;;;;;;14.05;8.18;;;;;;;31.90;39.51;98387.11;2168351;82;20993;-79
2022/08/17 12:32:49;;;;;;;16.42;7.90;;;;;;;31.78;39.17;98395.36;2168763;82;21429;-80
2022/08/17 12:35:50;;;;;;;10.13;7.33;;;;;;;31.65;39.82;98385.54;2168430;81;20969;-84
2022/08/17 12:38:50;;;;;;;14.80;8.08;;;;;;;31.51;37.04;98387.15;2169386;81;20979;-79
2022/08/17 12:41:51;;;;;;;34.10;8.95;;;;;;;31.22;40.06;98388.14;2169372;82;20988;-81
2022/08/17 12:44:51;;;;;;;27.58;9.53;;;;;;;31.13;41.30;98385.25;2169436;81;20968;-80
2022/08/17 12:47:51;;;;;;;11.83;8.58;;;;;;;31.03;41.64;98388.68;2169371;82;20991;-80
2022/08/17 12:50:52;;;;;;;12.05;7.60;;;;;;;31.35;41.07;98382.63;2169190;82;21798;-79
2022/08/17 12:53:52;;;;;;;11.20;7.78;;;;;;;31.57;39.83;98377.21;2169276;81;20941;-79
2022/08/17 12:56:53;;;;;;;13.35;8.43;;;;;;;31.75;39.75;98379.42;2169330;81;20941;-79
2022/08/17 12:59:53;;;;;;;8.48;7.62;;;;;;;31.95;39.28;98379.49;2167502;81;20940;-77
2022/08/17 13:02:53;;;;;;;21.00;8.68;;;;;;;32.29;38.87;98381.65;2166976;82;22029;-79
2022/08/17 13:05:54;;;;;;;12.10;8.05;;;;;;;32.29;38.87;98381.65;2167279;81;21063;-78
2022/08/17 13:08:54;;;;;;;12.80;7.95;;;;;;;32.46;38.43;98376.66;2168208;81;21023;-79
2022/08/17 13:11:55;;;;;;;12.47;7.97;;;;;;;32.70;37.85;98378.61;2168868;81;21023;-78
2022/08/17 13:14:56;;;;;;;10.58;8.10;;;;;;;32.82;37.66;98374.03;2169704;81;20929;-81
2022/08/17 13:17:56;;;;;;;13.20;7.92;;;;;;;32.96;37.53;98379.62;2170017;81;21356;-81
2022/08/17 13:20:56;;;;;;;8.25;7.45;;;;;;;32.65;37.33;98385.40;2170317;81;21663;-83
2022/08/17 13:23:56;;;;;;;13.65;8.15;;;;;;;32.45;38.14;98380.34;2169592;81;21906;-82
2022/08/17 13:26:57;;;;;;;21.00;8.53;;;;;;;32.66;38.41;98386.62;2170264;81;20969;-81
2022/08/17 13:29:58;;;;;;;15.43;9.63;;;;;;;32.76;38.08;98389.39;2170600;82;21000;-79
2022/08/17 13:32:58;;;;;;;15.28;8.65;;;;;;;32.52;38.45;98385.09;2170217;81;20948;-82
2022/08/17 13:35:58;;;;;;;10.25;9.05;;;;;;;32.20;40.64;98403.13;2170098;81;21983;-82
2022/08/17 13:38:58;;;;;;;13.65;9.30;;;;;;;31.80;42.84;98405.54;2170127;81;21738;-84
2022/08/17 13:41:59;;;;;;;10.65;9.48;;;;;;;31.37;44.10;98411.68;2170558;81;20968;-81
2022/08/17 13:44:59;;;;;;;12.95;9.30;;;;;;;30.83;45.50;98394.77;2170545;81;20937;-81
2022/08/17 13:48:00;;;;;;;14.23;9.03;;;;;;;31.00;46.06;98406.44;2170009;81;20968;-81
2022/08/17 13:51:00;;;;;;;11.35;8.48;;;;;;;31.19;46.26;98402.33;2171033;82;20968;-79
2022/08/17 13:54:00;;;;;;;9.10;8.20;;;;;;;31.32;45.73;98400.41;2171663;81;21044;-81
2022/08/17 13:57:01;;;;;;;8.95;8.13;;;;;;;31.43;45.95;98405.80;2171240;81;20988;-82
2022/08/17 14:00:01;;;;;;;53.08;14.00;;;;;;;31.58;45.84;98407.74;2171712;81;20937;-83
2022/08/17 14:03:02;;;;;;;17.20;9.45;;;;;;;31.47;45.56;98407.26;2171763;81;20960;-79
2022/08/17 14:06:03;;;;;;;12.05;8.20;;;;;;;31.40;45.93;98418.17;2175509;81;21035;-82
2022/08/17 14:09:03;;;;;;;11.12;8.88;;;;;;;31.28;46.15;98413.27;2187552;81;21000;-82
2022/08/17 14:12:03;;;;;;;14.85;8.73;;;;;;;31.05;44.28;98408.28;2187686;81;20964;-83
2022/08/17 14:15:03;;;;;;;14.33;8.65;;;;;;;30.65;45.77;98408.33;2187201;81;21035;-81
2022/08/17 14:18:04;;;;;;;10.78;8.28;;;;;;;30.28;47.67;98408.37;2186542;81;21011;-80
2022/08/17 14:21:04;;;;;;;14.05;8.83;;;;;;;30.39;47.64;98411.14;2186510;81;21372;-81